Time;durP1;ratioP1;P1;durP2;ratioP2;P2;SDS_P1;SDS_P2;PMS_P1;PMS_P2;Temp;Humidity;BMP_temperature;BMP_pressure;BME280_temperature;BME280_humidity;BME280_pressure;Samples;Min_cycle;Max_cycle;Signal;HPM_P1;HPM_P2
2021/08/03 00:00:17;;;;;;;;;;;;;;;21.41;60.74;101179.19;2201621;39;115009;-53
2021/08/03 00:01:50;;;;;;;;;;;;;;;21.41;60.63;101182.00;2197658;39;115779;-53
2021/08/03 00:03:27;;;;;;;;;;;;;;;21.48;60.66;101185.28;2196656;39;115507;-54
2021/08/03 00:04:59;;;;;;;;;;;;;;;21.44;60.74;101183.38;2197475;39;116164;-53
2021/08/03 00:06:31;;;;;;;;;;;;;;;21.45;60.87;101182.22;2198614;39;115222;-54
2021/08/03 00:08:08;;;;;;;;;;;;;;;21.45;60.78;101180.25;2196818;39;115639;-54
2021/08/03 00:09:40;;;;;;;;;;;;;;;21.47;61.00;101179.94;2194623;39;115664;-54
2021/08/03 00:11:12;;;;;;;;;;;;;;;21.44;60.91;101178.56;2197599;39;116012;-54
2021/08/03 00:12:49;;;;;;;;;;;;;;;21.46;61.16;101165.06;2179394;39;115858;-53
2021/08/03 00:14:21;;;;;;;;;;;;;;;21.49;61.36;101170.06;2183931;39;115535;-54
2021/08/03 00:15:56;;;;;;;;;;;;;;;21.49;61.31;101172.03;2190732;39;116194;-53
2021/08/03 00:17:28;;;;;;;;;;;;;;;21.49;61.08;101172.88;2195516;39;115422;-53
2021/08/03 00:19:00;;;;;;;;;;;;;;;21.49;61.27;101172.88;2196507;39;114514;-54
2021/08/03 00:20:34;;;;;;;;;;;;;;;21.48;61.13;101171.22;2191132;39;114855;-54
2021/08/03 00:22:06;;;;;;;;;;;;;;;21.50;61.12;101170.88;2199206;39;115601;-53
2021/08/03 00:23:40;;;;;;;;;;;;;;;21.51;61.34;101164.97;2194718;39;113726;-52
2021/08/03 00:25:12;;;;;;;;;;;;;;;21.50;61.19;101168.06;2202934;39;114161;-54
2021/08/03 00:26:44;;;;;;;;;;;;;;;21.52;61.24;101163.84;2193450;39;113914;-54
2021/08/03 00:28:16;;;;;;;;;;;;;;;21.52;61.36;101163.00;2191604;39;113779;-54
2021/08/03 00:29:49;;;;;;;;;;;;;;;21.51;61.27;101164.97;2198804;39;113817;-54
2021/08/03 00:31:22;;;;;;;;;;;;;;;21.51;61.06;101156.53;2198421;39;113678;-53
2021/08/03 00:32:54;;;;;;;;;;;;;;;21.53;61.40;101156.22;2198126;39;113664;-53
2021/08/03 00:34:26;;;;;;;;;;;;;;;21.53;61.20;101164.66;2196988;39;114046;-53
2021/08/03 00:35:58;;;;;;;;;;;;;;;21.52;61.44;101163.84;2195728;39;113910;-52
2021/08/03 00:37:29;;;;;;;;;;;;;;;21.49;61.20;101161.63;2194658;39;115459;-54
2021/08/03 00:39:01;;;;;;;;;;;;;;;21.48;61.31;101165.59;2201281;39;113999;-55
2021/08/03 00:40:36;;;;;;;;;;;;;;;21.48;61.44;101165.59;2197533;39;113891;-54
2021/08/03 00:42:08;;;;;;;;;;;;;;;21.49;61.46;101172.03;2187353;39;113871;-54
2021/08/03 00:43:40;;;;;;;;;;;;;;;21.48;61.60;101165.59;2192371;39;113644;-54
2021/08/03 00:45:12;;;;;;;;;;;;;;;21.51;61.50;101166.94;2195154;39;115461;-53
2021/08/03 00:46:44;;;;;;;;;;;;;;;21.49;61.42;101161.63;2198398;39;114018;-53
2021/08/03 00:48:17;;;;;;;;;;;;;;;21.50;61.51;101159.63;2199864;39;114973;-54
2021/08/03 00:49:49;;;;;;;;;;;;;;;21.51;61.57;101159.34;2192594;39;115003;-54
2021/08/03 00:51:21;;;;;;;;;;;;;;;21.52;61.25;101158.22;2194794;39;114817;-53
2021/08/03 00:52:52;;;;;;;;;;;;;;;21.53;61.60;101153.41;2200118;39;114921;-53
2021/08/03 00:54:24;;;;;;;;;;;;;;;21.53;61.50;101154.22;2199612;39;114735;-53
2021/08/03 00:55:59;;;;;;;;;;;;;;;21.53;61.48;101145.78;2194321;39;114463;-53
2021/08/03 00:57:32;;;;;;;;;;;;;;;21.50;61.65;101146.41;2198078;39;115066;-54
2021/08/03 00:59:04;;;;;;;;;;;;;;;21.53;61.57;101148.59;2197827;39;114814;-53
2021/08/03 01:00:35;;;;;;;;;;;;;;;21.53;61.63;101148.59;2198828;39;114604;-53
2021/08/03 01:02:07;;;;;;;;;;;;;;;21.53;61.86;101137.34;2198661;39;115005;-54
2021/08/03 01:03:39;;;;;;;;;;;;;;;21.54;61.73;101139.03;2196152;39;115023;-54
2021/08/03 01:05:11;;;;;;;;;;;;;;;21.55;61.46;101137.06;2193231;39;115373;-56
2021/08/03 01:06:44;;;;;;;;;;;;;;;21.54;61.65;101136.22;2196641;39;115580;-53
2021/08/03 01:08:20;;;;;;;;;;;;;;;21.54;61.58;101133.41;2197318;39;115571;-54
2021/08/03 01:09:54;;;;;;;;;;;;;;;21.52;61.62;101132.91;2197009;39;115332;-54
2021/08/03 01:11:32;;;;;;;;;;;;;;;21.53;61.38;101131.72;2198534;39;116144;-53
2021/08/03 01:13:13;;;;;;;;;;;;;;;21.54;61.65;101133.41;2198007;39;114580;-53
2021/08/03 01:14:50;;;;;;;;;;;;;;;21.55;61.63;101129.47;2198153;39;115521;-53
2021/08/03 01:16:25;;;;;;;;;;;;;;;21.53;61.77;101136.56;2196065;39;115538;-53
2021/08/03 01:18:17;;;;;;;;;;;;;;;21.52;61.52;101134.88;2195173;39;115500;-53
2021/08/03 01:19:56;;;;;;;;;;;;;;;21.54;61.54;101136.22;2192042;39;115498;-53
2021/08/03 01:21:33;;;;;;;;;;;;;;;21.54;61.63;101136.22;2197856;39;114529;-53
2021/08/03 01:23:07;;;;;;;;;;;;;;;21.55;61.65;101140.72;2184950;39;116038;-53
2021/08/03 01:24:49;;;;;;;;;;;;;;;21.55;61.71;101140.72;2194358;39;115588;-54
2021/08/03 01:26:28;;;;;;;;;;;;;;;21.56;62.05;101135.91;2204444;39;114633;-54
2021/08/03 01:28:03;;;;;;;;;;;;;;;21.58;61.96;101142.03;2201060;39;115487;-53
2021/08/03 01:29:35;;;;;;;;;;;;;;;21.60;62.01;101140.59;2205815;39;115531;-54
2021/08/03 01:31:08;;;;;;;;;;;;;;;21.59;61.98;101144.56;2204032;39;113733;-54
2021/08/03 01:32:42;;;;;;;;;;;;;;;21.58;62.14;101142.88;2195446;39;113795;-54
2021/08/03 01:34:15;;;;;;;;;;;;;;;21.60;62.03;101151.84;2194003;39;113545;-53
2021/08/03 01:35:47;;;;;;;;;;;;;;;21.62;61.79;101151.56;2196109;39;114001;-53
2021/08/03 01:37:20;;;;;;;;;;;;;;;21.65;62.13;101145.31;2197707;39;114149;-54
2021/08/03 01:38:52;;;;;;;;;;;;;;;21.64;62.08;101147.28;2187110;39;113921;-53
2021/08/03 01:40:25;;;;;;;;;;;;;;;21.66;62.24;101149.78;2195921;39;113844;-54
2021/08/03 01:41:58;;;;;;;;;;;;;;;21.65;62.06;101146.13;2198351;39;113862;-54
2021/08/03 01:43:32;;;;;;;;;;;;;;;21.64;61.91;101150.09;2191216;39;113883;-53
2021/08/03 01:45:05;;;;;;;;;;;;;;;21.66;62.41;101147.81;2183045;39;113795;-53
2021/08/03 01:46:39;;;;;;;;;;;;;;;21.64;61.85;101138.84;2194291;39;114056;-53
2021/08/03 01:48:12;;;;;;;;;;;;;;;21.64;62.08;101135.19;2196608;39;113927;-53
2021/08/03 01:49:45;;;;;;;;;;;;;;;21.59;62.34;101133.31;2194604;39;113979;-53
2021/08/03 01:51:17;;;;;;;;;;;;;;;21.61;62.02;101136.66;2203806;39;113824;-54
2021/08/03 01:52:49;;;;;;;;;;;;;;;21.63;62.28;101131.53;2200296;39;114780;-53
2021/08/03 01:54:23;;;;;;;;;;;;;;;21.63;62.26;101122.28;2202392;39;114900;-53
2021/08/03 01:55:57;;;;;;;;;;;;;;;21.60;62.23;101120.09;2192573;39;113899;-53
2021/08/03 01:57:30;;;;;;;;;;;;;;;21.61;62.61;101116.97;2192235;39;114777;-54
2021/08/03 01:59:02;;;;;;;;;;;;;;;21.60;62.34;101118.13;2192486;39;114976;-54
2021/08/03 02:00:34;;;;;;;;;;;;;;;21.58;62.35;101120.38;2197627;39;114776;-53
2021/08/03 02:02:06;;;;;;;;;;;;;;;21.57;62.33;101115.09;2203170;39;114868;-55
2021/08/03 02:03:39;;;;;;;;;;;;;;;21.56;62.52;101122.69;2204443;39;115247;-52
2021/08/03 02:05:11;;;;;;;;;;;;;;;21.58;62.39;101119.56;2195006;39;114707;-53
2021/08/03 02:06:43;;;;;;;;;;;;;;;21.58;62.53;101114.75;2196236;39;114913;-52
2021/08/03 02:08:17;;;;;;;;;;;;;;;21.58;62.45;101116.75;2196923;39;115088;-54
2021/08/03 02:09:49;;;;;;;;;;;;;;;21.60;62.33;101117.28;2202363;39;114763;-53
2021/08/03 02:11:24;;;;;;;;;;;;;;;21.59;62.35;101115.59;2198184;39;114818;-54
2021/08/03 02:12:56;;;;;;;;;;;;;;;21.58;62.50;101111.13;2198545;39;115163;-53
2021/08/03 02:14:28;;;;;;;;;;;;;;;21.58;62.28;101117.59;2191582;39;115647;-53
2021/08/03 02:16:00;;;;;;;;;;;;;;;21.58;62.23;101117.59;2191025;39;116151;-53
2021/08/03 02:17:32;;;;;;;;;;;;;;;21.58;62.58;101120.38;2194146;39;114792;-53
2021/08/03 02:19:04;;;;;;;;;;;;;;;21.56;62.55;101122.69;2197967;39;115901;-54
2021/08/03 02:20:38;;;;;;;;;;;;;;;21.58;62.64;101111.97;2192963;39;115826;-53
2021/08/03 02:22:10;;;;;;;;;;;;;;;21.56;62.44;101122.69;2197727;39;114660;-53
2021/08/03 02:23:42;;;;;;;;;;;;;;;21.58;62.46;101119.56;2198145;39;114568;-53
2021/08/03 02:25:14;;;;;;;;;;;;;;;21.58;62.78;101119.56;2192740;39;115524;-53
2021/08/03 02:26:46;;;;;;;;;;;;;;;21.56;62.66;101125.50;2196139;39;115821;-53
2021/08/03 02:28:18;;;;;;;;;;;;;;;21.59;62.60;101127.69;2194430;39;115885;-53
2021/08/03 02:29:50;;;;;;;;;;;;;;;21.57;62.98;101131.97;2197465;39;115392;-53
2021/08/03 02:31:29;;;;;;;;;;;;;;;21.55;62.62;101132.28;2189651;39;114737;-53
2021/08/03 02:33:11;;;;;;;;;;;;;;;21.59;62.73;101136.13;2201806;39;115589;-53
2021/08/03 02:34:50;;;;;;;;;;;;;;;21.57;62.98;101140.41;2200547;39;116300;-53
2021/08/03 02:36:23;;;;;;;;;;;;;;;21.56;63.01;101135.91;2197217;39;113856;-53
2021/08/03 02:37:58;;;;;;;;;;;;;;;21.55;63.00;101121.03;2197228;39;114605;-54
2021/08/03 02:39:30;;;;;;;;;;;;;;;21.58;63.13;101130.81;2198054;39;113566;-55
2021/08/03 02:41:02;;;;;;;;;;;;;;;21.57;63.14;101129.16;2196104;39;113626;-55
2021/08/03 02:42:36;;;;;;;;;;;;;;;21.58;63.25;101128.81;2197561;39;113917;-53
2021/08/03 02:44:09;;;;;;;;;;;;;;;21.58;63.16;101131.63;2193796;39;113790;-53
2021/08/03 02:45:41;;;;;;;;;;;;;;;21.55;63.03;101137.06;2198835;39;113748;-52
2021/08/03 02:50:30;;;;;;;;;;;;;;;21.56;63.17;101127.47;2190897;39;113768;-53
2021/08/03 02:52:03;;;;;;;;;;;;;;;21.53;63.05;101134.53;2196508;39;114063;-53
2021/08/03 02:53:37;;;;;;;;;;;;;;;21.56;63.10;101135.91;2198544;39;113647;-53
2021/08/03 02:55:09;;;;;;;;;;;;;;;21.54;62.99;101133.41;2199324;39;114140;-54
2021/08/03 02:56:41;;;;;;;;;;;;;;;21.53;63.12;101130.94;2199790;39;113572;-53
2021/08/03 02:58:15;;;;;;;;;;;;;;;21.56;63.25;101133.94;2202991;39;113643;-53
2021/08/03 02:59:50;;;;;;;;;;;;;;;21.58;63.38;101144.84;2196544;39;114781;-53
2021/08/03 03:01:24;;;;;;;;;;;;;;;21.56;63.28;101138.72;2199963;39;114834;-53
2021/08/03 03:02:56;;;;;;;;;;;;;;;21.57;63.25;101135.63;2200132;39;114047;-53
2021/08/03 03:04:33;;;;;;;;;;;;;;;21.58;63.26;101137.25;2197189;39;114873;-54
2021/08/03 03:06:07;;;;;;;;;;;;;;;21.54;63.51;101136.22;2196958;39;114802;-53
2021/08/03 03:07:41;;;;;;;;;;;;;;;21.56;63.23;101133.94;2190505;39;115476;-53
2021/08/03 03:09:14;;;;;;;;;;;;;;;21.56;63.31;101138.72;2195601;39;115659;-53
2021/08/03 03:10:49;;;;;;;;;;;;;;;21.57;63.15;101146.03;2193663;39;114746;-53
2021/08/03 03:12:25;;;;;;;;;;;;;;;21.57;63.24;101146.03;2198449;39;115164;-54
2021/08/03 03:13:58;;;;;;;;;;;;;;;21.56;63.30;101142.38;2196548;39;113859;-54
2021/08/03 03:15:30;;;;;;;;;;;;;;;21.56;63.34;101145.19;2198923;39;115227;-53
2021/08/03 03:17:02;;;;;;;;;;;;;;;21.58;63.10;101140.06;2198550;39;115048;-53
2021/08/03 03:18:34;;;;;;;;;;;;;;;21.55;63.21;101131.44;2196571;39;114852;-54
2021/08/03 03:20:07;;;;;;;;;;;;;;;21.55;63.29;101132.28;2200544;39;114802;-53
2021/08/03 03:21:41;;;;;;;;;;;;;;;21.57;63.55;101129.16;2192387;39;115698;-53
2021/08/03 03:23:14;;;;;;;;;;;;;;;21.55;63.47;101132.28;2198773;39;115498;-53
2021/08/03 03:24:46;;;;;;;;;;;;;;;21.54;63.27;101130.59;2198183;39;114986;-53
2021/08/03 03:26:19;;;;;;;;;;;;;;;21.55;63.07;101131.44;2191415;39;115685;-53
2021/08/03 03:27:53;;;;;;;;;;;;;;;21.55;63.53;101132.28;2189677;39;115217;-54
2021/08/03 03:29:26;;;;;;;;;;;;;;;21.53;63.35;101128.13;2196554;39;115503;-53
2021/08/03 03:30:59;;;;;;;;;;;;;;;21.52;63.49;101127.28;2191423;39;115557;-53
2021/08/03 03:32:31;;;;;;;;;;;;;;;21.54;63.41;101126.94;2195433;39;115544;-52
2021/08/03 03:34:04;;;;;;;;;;;;;;;21.52;63.68;101123.63;2199505;39;115516;-52
2021/08/03 03:35:37;;;;;;;;;;;;;;;21.52;63.40;101120.81;2198635;39;116129;-54
2021/08/03 03:37:09;;;;;;;;;;;;;;;21.51;63.49;101119.16;2199477;39;115440;-53
2021/08/03 03:38:42;;;;;;;;;;;;;;;21.51;63.86;101119.16;2198563;39;115606;-53
2021/08/03 03:40:15;;;;;;;;;;;;;;;21.49;63.37;101111.00;2198243;39;115828;-53
2021/08/03 03:41:49;;;;;;;;;;;;;;;21.51;63.46;101117.16;2192717;39;115561;-53
2021/08/03 03:43:21;;;;;;;;;;;;;;;21.51;63.79;101107.91;2196034;39;113901;-53
2021/08/03 03:44:53;;;;;;;;;;;;;;;21.52;63.63;101110.41;2187505;39;113685;-53
2021/08/03 03:46:30;;;;;;;;;;;;;;;21.52;63.29;101115.19;2194396;39;114395;-53
2021/08/03 03:48:06;;;;;;;;;;;;;;;21.51;63.61;101114.34;2198096;39;113785;-53
2021/08/03 03:49:41;;;;;;;;;;;;;;;21.50;63.90;101109.88;2200322;39;113796;-53
2021/08/03 03:51:15;;;;;;;;;;;;;;;21.51;63.82;101107.91;2193147;39;113640;-53
2021/08/03 03:52:52;;;;;;;;;;;;;;;21.51;64.07;101103.13;2197880;39;113718;-53
2021/08/03 03:54:26;;;;;;;;;;;;;;;21.57;64.06;101103.84;2200674;39;114052;-53
2021/08/03 03:55:59;;;;;;;;;;;;;;;21.58;64.45;101097.91;2198353;39;113792;-53
2021/08/03 03:57:31;;;;;;;;;;;;;;;21.52;63.57;101093.53;2196735;39;114171;-53
2021/08/03 03:59:04;;;;;;;;;;;;;;;21.48;63.35;101086.88;2196704;39;113652;-53
2021/08/03 04:00:38;;;;;;;;;;;;;;;21.49;63.36;101084.88;2192422;39;113976;-53
2021/08/03 04:02:10;;;;;;;;;;;;;;;21.51;63.58;101086.25;2196017;39;113949;-53
2021/08/03 04:03:44;;;;;;;;;;;;;;;21.50;63.66;101083.75;2191893;39;114212;-53
2021/08/03 04:05:16;;;;;;;;;;;;;;;21.49;63.07;101076.44;2186056;39;114839;-53
2021/08/03 04:06:48;;;;;;;;;;;;;;;21.47;63.03;101084.38;2187118;39;114735;-54
2021/08/03 04:08:20;;;;;;;;;;;;;;;21.48;63.47;101075.63;2194600;39;115234;-53
2021/08/03 04:10:02;;;;;;;;;;;;;;;21.43;61.22;101072.91;2198416;39;114824;-54
2021/08/03 04:11:42;;;;;;;;;;;;;;;21.45;61.32;101073.44;2191301;39;114819;-53
2021/08/03 04:13:14;;;;;;;;;;;;;;;21.39;59.63;101065.41;2197079;39;115232;-54
2021/08/03 04:14:46;;;;;;;;;;;;;;;21.36;58.12;101071.66;2198749;39;115101;-53
2021/08/03 04:16:18;;;;;;;;;;;;;;;21.27;57.93;101071.53;2198528;39;115045;-53
2021/08/03 04:17:50;;;;;;;;;;;;;;;21.20;58.19;101069.16;2197410;39;115187;-53
2021/08/03 04:19:22;;;;;;;;;;;;;;;21.15;57.69;101063.63;2198473;39;115254;-53
2021/08/03 04:20:54;;;;;;;;;;;;;;;21.11;57.95;101068.16;2198627;39;114801;-53
2021/08/03 04:22:26;;;;;;;;;;;;;;;21.11;57.98;101064.53;2197431;39;114194;-53
2021/08/03 04:23:58;;;;;;;;;;;;;;;21.03;57.63;101068.84;2198425;39;114734;-53
2021/08/03 04:25:30;;;;;;;;;;;;;;;21.04;58.12;101064.06;2200139;39;114911;-53
2021/08/03 04:27:02;;;;;;;;;;;;;;;21.04;59.15;101064.91;2194519;39;115503;-53
2021/08/03 04:28:34;;;;;;;;;;;;;;;21.12;60.16;101063.38;2188559;39;115492;-52
2021/08/03 04:30:07;;;;;;;;;;;;;;;21.15;60.62;101068.41;2195307;39;115634;-54
2021/08/03 04:31:39;;;;;;;;;;;;;;;21.15;60.98;101063.63;2186289;39;115897;-53
2021/08/03 04:33:11;;;;;;;;;;;;;;;21.14;61.23;101064.75;2195930;39;115572;-53
2021/08/03 04:34:42;;;;;;;;;;;;;;;21.12;61.72;101067.00;2197611;39;115506;-53
2021/08/03 04:36:14;;;;;;;;;;;;;;;21.11;62.22;101061.72;2196261;39;115606;-53
2021/08/03 04:37:47;;;;;;;;;;;;;;;21.10;62.38;101062.84;2190137;39;115895;-53
2021/08/03 04:39:19;;;;;;;;;;;;;;;21.08;62.78;101060.34;2193816;39;115498;-53
2021/08/03 04:40:51;;;;;;;;;;;;;;;21.10;62.73;101060.88;2191507;39;115530;-53
2021/08/03 04:42:22;;;;;;;;;;;;;;;21.09;62.81;101058.38;2193682;39;115679;-53
2021/08/03 04:43:55;;;;;;;;;;;;;;;21.07;63.14;101069.09;2198595;39;115591;-54
2021/08/03 04:45:26;;;;;;;;;;;;;;;21.09;62.84;101072.41;2195240;39;115949;-54
2021/08/03 04:46:58;;;;;;;;;;;;;;;21.06;63.14;101071.06;2198565;39;115874;-53
2021/08/03 04:48:30;;;;;;;;;;;;;;;21.07;63.01;101077.53;2197181;39;115095;-54
2021/08/03 04:50:02;;;;;;;;;;;;;;;21.08;62.76;101079.16;2196419;39;113787;-53
2021/08/03 04:51:33;;;;;;;;;;;;;;;21.07;62.90;101077.53;2181009;39;114087;-53
2021/08/03 04:53:05;;;;;;;;;;;;;;;21.08;62.75;101081.97;2194740;39;113849;-53
2021/08/03 04:54:37;;;;;;;;;;;;;;;21.07;62.69;101083.16;2200425;39;113918;-53
2021/08/03 04:56:09;;;;;;;;;;;;;;;21.06;62.75;101076.69;2192742;39;114164;-53
2021/08/03 04:57:42;;;;;;;;;;;;;;;21.07;62.87;101083.16;2198966;39;113714;-53
2021/08/03 04:59:13;;;;;;;;;;;;;;;21.06;62.52;101075.84;2196880;39;114130;-54
2021/08/03 05:00:45;;;;;;;;;;;;;;;21.05;62.53;101072.19;2197125;39;113804;-53
2021/08/03 05:02:17;;;;;;;;;;;;;;;21.06;62.54;101075.84;2194575;39;113771;-52
2021/08/03 05:03:49;;;;;;;;;;;;;;;21.06;62.38;101084.28;2196098;39;113914;-54
2021/08/03 05:05:21;;;;;;;;;;;;;;;21.06;62.83;101081.47;2197991;39;113645;-53
2021/08/03 05:06:53;;;;;;;;;;;;;;;21.05;62.41;101086.25;2199494;39;113768;-53
2021/08/03 05:08:24;;;;;;;;;;;;;;;21.05;62.32;101076.97;2196436;39;113934;-54
2021/08/03 05:10:00;;;;;;;;;;;;;;;21.06;62.73;101079.50;2198214;39;113910;-54
2021/08/03 05:11:32;;;;;;;;;;;;;;;21.06;62.54;101081.47;2197871;39;114857;-53
2021/08/03 05:13:04;;;;;;;;;;;;;;;21.05;62.45;101080.63;2200219;39;113874;-53
2021/08/03 05:14:35;;;;;;;;;;;;;;;21.05;62.37;101079.78;2191104;39;115109;-53
2021/08/03 05:16:07;;;;;;;;;;;;;;;21.05;62.62;101082.59;2199809;39;114934;-53
2021/08/03 05:17:39;;;;;;;;;;;;;;;21.04;62.31;101086.53;2198845;39;114399;-54
2021/08/03 05:19:11;;;;;;;;;;;;;;;21.04;62.23;101089.34;2197045;39;113843;-53
2021/08/03 05:20:44;;;;;;;;;;;;;;;21.04;62.59;101090.19;2197384;39;114800;-54
2021/08/03 05:22:15;;;;;;;;;;;;;;;21.04;62.41;101086.53;2196680;39;114120;-53
2021/08/03 05:23:47;;;;;;;;;;;;;;;21.03;62.33;101093.34;2197449;39;114838;-53
2021/08/03 05:25:19;;;;;;;;;;;;;;;21.02;62.19;101098.13;2197364;39;114804;-54
2021/08/03 05:26:52;;;;;;;;;;;;;;;21.02;62.24;101103.72;2196993;39;114630;-53
2021/08/03 05:28:24;;;;;;;;;;;;;;;21.02;62.61;101097.28;2190459;39;114881;-54
2021/08/03 05:29:56;;;;;;;;;;;;;;;21.01;62.58;101099.25;2195862;39;114919;-53
2021/08/03 05:31:27;;;;;;;;;;;;;;;21.02;62.29;101105.69;2200282;39;114778;-53
2021/08/03 05:33:00;;;;;;;;;;;;;;;20.99;62.31;101106.31;2196819;39;114165;-53
2021/08/03 05:34:31;;;;;;;;;;;;;;;21.01;62.44;101101.22;2190294;39;115095;-53
2021/08/03 05:36:03;;;;;;;;;;;;;;;21.00;62.19;101102.34;2195389;39;115698;-53
2021/08/03 05:37:35;;;;;;;;;;;;;;;21.00;62.36;101106.00;2197409;39;116120;-53
2021/08/03 05:39:09;;;;;;;;;;;;;;;20.99;62.27;101098.72;2188346;39;116153;-53
2021/08/03 05:40:46;;;;;;;;;;;;;;;20.99;62.41;101095.06;2193252;39;115611;-54
2021/08/03 05:42:18;;;;;;;;;;;;;;;20.99;62.32;101095.06;2197467;39;115447;-54
2021/08/03 05:43:49;;;;;;;;;;;;;;;20.99;62.45;101097.88;2202593;39;115939;-53
2021/08/03 05:45:23;;;;;;;;;;;;;;;20.98;62.44;101107.47;2202187;39;115282;-53
2021/08/03 05:46:56;;;;;;;;;;;;;;;20.97;62.47;101103.81;2193808;39;115852;-52
2021/08/03 05:48:28;;;;;;;;;;;;;;;20.99;62.45;101106.31;2188584;39;115926;-54
2021/08/03 05:49:59;;;;;;;;;;;;;;;20.98;62.16;101101.84;2183691;39;115802;-53
2021/08/03 05:51:31;;;;;;;;;;;;;;;20.98;62.29;101110.28;2192240;39;115506;-53
2021/08/03 05:53:03;;;;;;;;;;;;;;;20.99;62.44;101109.09;2199481;39;115862;-54
2021/08/03 05:54:35;;;;;;;;;;;;;;;20.96;62.55;101104.94;2197166;39;113785;-53
2021/08/03 05:56:07;;;;;;;;;;;;;;;20.97;62.22;101109.44;2190374;39;113752;-53
2021/08/03 05:57:38;;;;;;;;;;;;;;;20.98;62.16;101110.28;2188402;39;114027;-54
2021/08/03 05:59:10;;;;;;;;;;;;;;;20.96;62.11;101107.75;2195555;39;113881;-53
2021/08/03 06:00:43;;;;;;;;;;;;;;;20.97;62.40;101112.25;2197589;39;113716;-53
2021/08/03 06:02:15;;;;;;;;;;;;;;;20.97;62.23;101105.78;2196497;39;114384;-54
2021/08/03 06:03:47;;;;;;;;;;;;;;;20.97;62.39;101108.59;2189988;39;113953;-53
2021/08/03 06:05:19;;;;;;;;;;;;;;;20.97;62.03;101117.88;2188323;39;113893;-53
2021/08/03 06:06:53;;;;;;;;;;;;;;;20.96;62.08;101121.81;2194677;39;114022;-53
2021/08/03 06:08:28;;;;;;;;;;;;;;;20.95;62.39;101114.50;2194755;39;113980;-54
2021/08/03 06:10:00;;;;;;;;;;;;;;;20.96;62.13;101119.00;2195796;39;114206;-53
2021/08/03 06:11:31;;;;;;;;;;;;;;;20.96;62.43;101113.38;2197620;39;114261;-53
2021/08/03 06:13:04;;;;;;;;;;;;;;;20.97;62.42;101108.59;2200292;39;113781;-53
2021/08/03 06:14:40;;;;;;;;;;;;;;;20.96;62.36;101116.19;2196914;39;114105;-53
2021/08/03 06:16:14;;;;;;;;;;;;;;;20.95;62.20;101122.94;2197382;39;113777;-53
2021/08/03 06:17:50;;;;;;;;;;;;;;;20.95;62.32;101120.13;2184998;39;115517;-53
2021/08/03 06:19:24;;;;;;;;;;;;;;;20.95;62.38;101122.94;2200182;39;113940;-53
2021/08/03 06:20:57;;;;;;;;;;;;;;;20.95;62.03;101131.38;2196941;39;114789;-54
2021/08/03 06:22:29;;;;;;;;;;;;;;;20.96;62.28;101126.59;2197726;39;114926;-53
2021/08/03 06:24:01;;;;;;;;;;;;;;;20.95;62.02;101128.56;2200098;39;115349;-53
2021/08/03 06:25:33;;;;;;;;;;;;;;;20.96;62.00;101133.03;2199370;39;114768;-53
2021/08/03 06:27:07;;;;;;;;;;;;;;;20.95;62.32;101125.75;2199138;39;113823;-54
2021/08/03 06:28:39;;;;;;;;;;;;;;;20.94;62.04;101124.06;2193071;39;114969;-54
2021/08/03 06:30:12;;;;;;;;;;;;;;;20.95;62.44;101133.34;2189635;39;114847;-53
2021/08/03 06:31:44;;;;;;;;;;;;;;;20.94;62.35;101135.31;2193201;39;114938;-53
2021/08/03 06:33:17;;;;;;;;;;;;;;;20.92;62.36;101132.00;2199060;39;115255;-54
2021/08/03 06:34:49;;;;;;;;;;;;;;;20.93;62.21;101130.84;2186205;39;114878;-53
2021/08/03 06:36:21;;;;;;;;;;;;;;;20.93;62.19;101130.84;2190575;39;114902;-53
2021/08/03 06:37:52;;;;;;;;;;;;;;;20.94;62.42;101129.69;2204083;39;115293;-54
2021/08/03 06:39:24;;;;;;;;;;;;;;;20.92;62.17;101136.78;2199396;39;114561;-53
2021/08/03 06:41:07;;;;;;;;;;;;;;;20.92;62.17;101128.34;2198791;39;115454;-53
2021/08/03 06:42:45;;;;;;;;;;;;;;;20.92;62.05;101134.81;2195292;39;116135;-53
2021/08/03 06:44:21;;;;;;;;;;;;;;;20.93;61.90;101136.47;2188281;39;115967;-53
2021/08/03 06:45:59;;;;;;;;;;;;;;;20.95;62.56;101139.78;2191519;39;115008;-53
2021/08/03 06:47:38;;;;;;;;;;;;;;;20.99;62.30;101140.00;2192582;39;115454;-54
2021/08/03 06:49:12;;;;;;;;;;;;;;;21.00;61.92;101138.88;2190286;39;114488;-54
2021/08/03 06:50:49;;;;;;;;;;;;;;;21.03;61.21;101136.28;2197143;39;116086;-53
2021/08/03 06:52:21;;;;;;;;;;;;;;;21.06;61.29;101134.84;2198093;39;114951;-53
2021/08/03 06:53:56;;;;;;;;;;;;;;;21.08;60.80;101138.16;2198521;39;115606;-54
2021/08/03 06:55:29;;;;;;;;;;;;;;;21.08;60.63;101138.16;2191054;39;115143;-54
2021/08/03 06:57:07;;;;;;;;;;;;;;;21.11;60.71;101141.22;2196048;39;115955;-54
2021/08/03 06:58:49;;;;;;;;;;;;;;;21.13;60.47;101140.91;2193155;39;115737;-53
2021/08/03 07:00:22;;;;;;;;;;;;;;;21.15;60.48;101138.66;2200253;39;115660;-53
2021/08/03 07:02:01;;;;;;;;;;;;;;;21.15;60.79;101142.28;2196534;39;113914;-53
2021/08/03 07:03:41;;;;;;;;;;;;;;;21.18;60.83;101143.66;2198385;39;113734;-54
2021/08/03 07:05:16;;;;;;;;;;;;;;;21.19;61.20;101140.53;2195815;39;114209;-53
2021/08/03 07:06:51;;;;;;;;;;;;;;;21.22;60.93;101142.72;2190648;39;114186;-53
2021/08/03 07:08:23;;;;;;;;;;;;;;;21.24;61.24;101142.41;2194430;39;113710;-53
2021/08/03 07:09:55;;;;;;;;;;;;;;;21.29;60.71;101151.59;2194901;39;114025;-53
2021/08/03 07:11:29;;;;;;;;;;;;;;;21.32;60.99;101146.50;2191018;39;114326;-53
2021/08/03 07:13:01;;;;;;;;;;;;;;;21.35;60.71;101137.47;2195930;39;114042;-53
2021/08/03 07:14:34;;;;;;;;;;;;;;;21.37;61.04;101147.25;2193160;39;113924;-53
2021/08/03 07:16:09;;;;;;;;;;;;;;;21.40;60.98;101140.97;2194731;39;114469;-54
2021/08/03 07:17:42;;;;;;;;;;;;;;;21.42;60.66;101149.13;2199061;39;113749;-54
2021/08/03 07:19:17;;;;;;;;;;;;;;;21.46;60.76;101151.00;2193411;39;113846;-54
2021/08/03 07:20:49;;;;;;;;;;;;;;;21.49;60.59;101150.38;2188372;39;113801;-54
2021/08/03 07:22:22;;;;;;;;;;;;;;;21.52;60.63;101154.56;2194747;39;113868;-54
2021/08/03 07:23:55;;;;;;;;;;;;;;;21.56;60.71;101149.97;2197253;39;114042;-53
2021/08/03 07:25:27;;;;;;;;;;;;;;;21.59;60.77;101150.19;2195866;39;114874;-53
2021/08/03 07:26:59;;;;;;;;;;;;;;;21.63;60.35;101144.75;2193169;39;114756;-53
2021/08/03 07:28:31;;;;;;;;;;;;;;;21.66;60.28;101146.97;2191668;39;118706;-53
2021/08/03 07:30:04;;;;;;;;;;;;;;;21.69;60.76;101149.16;2193401;39;114826;-54
2021/08/03 07:31:36;;;;;;;;;;;;;;;21.72;60.49;101145.72;2188493;39;114913;-53
2021/08/03 07:33:10;;;;;;;;;;;;;;;21.74;60.62;101147.09;2189938;39;114806;-54
2021/08/03 07:34:42;;;;;;;;;;;;;;;21.78;60.34;101152.06;2192399;39;114933;-53
2021/08/03 07:36:15;;;;;;;;;;;;;;;21.80;60.55;101138.53;2190963;39;115796;-53
2021/08/03 07:37:46;;;;;;;;;;;;;;;21.82;60.57;101142.69;2188750;39;114796;-53
2021/08/03 07:39:18;;;;;;;;;;;;;;;21.84;60.45;101154.47;2193398;39;113813;-53
2021/08/03 07:40:50;;;;;;;;;;;;;;;21.87;60.50;101144.56;2195485;39;114834;-53
2021/08/03 07:42:22;;;;;;;;;;;;;;;21.89;60.56;101147.91;2195825;39;114756;-54
2021/08/03 07:43:54;;;;;;;;;;;;;;;21.91;60.22;101148.41;2191907;39;114793;-53
2021/08/03 07:45:27;;;;;;;;;;;;;;;21.93;60.37;101137.75;2189263;39;115538;-53
2021/08/03 07:46:59;;;;;;;;;;;;;;;21.95;60.05;101144.69;2194221;39;115633;-53
2021/08/03 07:48:31;;;;;;;;;;;;;;;21.97;60.15;101145.25;2190765;39;114663;-53
2021/08/03 07:50:04;;;;;;;;;;;;;;;21.99;60.11;101142.94;2191655;39;115840;-53
2021/08/03 07:51:36;;;;;;;;;;;;;;;22.01;59.89;101145.44;2191077;39;115486;-53
2021/08/03 07:53:08;;;;;;;;;;;;;;;22.03;59.83;101146.78;2189959;39;114597;-52
2021/08/03 07:54:40;;;;;;;;;;;;;;;22.04;59.94;101145.63;2191266;39;115858;-53
2021/08/03 07:56:13;;;;;;;;;;;;;;;22.06;59.90;101146.16;2191612;39;115946;-54